sensor_id;sensor_type;location;lat;lon;timestamp;P1;durP1;ratioP1;P2;durP2;ratioP2
39044;SDS011;52192;52.002;5.956;2022-11-04T00:01:49;1.52;;;1.05;;
39044;SDS011;52192;52.002;5.956;2022-11-04T00:04:16;3.22;;;1.02;;
39044;SDS011;52192;52.002;5.956;2022-11-04T00:06:43;1.63;;;1.25;;
39044;SDS011;52192;52.002;5.956;2022-11-04T00:09:11;0.93;;;0.90;;
39044;SDS011;52192;52.002;5.956;2022-11-04T00:11:39;1.48;;;1.02;;
39044;SDS011;52192;52.002;5.956;2022-11-04T00:14:24;1.02;;;1.00;;
39044;SDS011;52192;52.002;5.956;2022-11-04T00:16:49;2.63;;;1.10;;
39044;SDS011;52192;52.002;5.956;2022-11-04T00:19:33;1.40;;;1.25;;
39044;SDS011;52192;52.002;5.956;2022-11-04T00:22:18;1.55;;;1.20;;
39044;SDS011;52192;52.002;5.956;2022-11-04T00:25:03;1.52;;;1.42;;
39044;SDS011;52192;52.002;5.956;2022-11-04T00:27:48;1.15;;;0.90;;
39044;SDS011;52192;52.002;5.956;2022-11-04T00:30:32;2.13;;;1.77;;
39044;SDS011;52192;52.002;5.956;2022-11-04T00:32:57;1.77;;;1.50;;
39044;SDS011;52192;52.002;5.956;2022-11-04T00:35:49;3.60;;;2.45;;
39044;SDS011;52192;52.002;5.956;2022-11-04T00:38:15;2.28;;;1.70;;
39044;SDS011;52192;52.002;5.956;2022-11-04T00:40:41;2.80;;;2.05;;
39044;SDS011;52192;52.002;5.956;2022-11-04T00:43:07;2.50;;;1.90;;
39044;SDS011;52192;52.002;5.956;2022-11-04T00:45:33;4.15;;;2.80;;
39044;SDS011;52192;52.002;5.956;2022-11-04T00:47:58;5.55;;;2.95;;
39044;SDS011;52192;52.002;5.956;2022-11-04T00:50:24;5.28;;;3.60;;
39044;SDS011;52192;52.002;5.956;2022-11-04T00:52:50;4.05;;;2.45;;
39044;SDS011;52192;52.002;5.956;2022-11-04T00:55:15;11.10;;;2.75;;
39044;SDS011;52192;52.002;5.956;2022-11-04T00:57:41;3.25;;;2.53;;
39044;SDS011;52192;52.002;5.956;2022-11-04T01:00:07;2.25;;;2.05;;
39044;SDS011;52192;52.002;5.956;2022-11-04T01:02:33;3.72;;;2.08;;
39044;SDS011;52192;52.002;5.956;2022-11-04T01:04:58;2.13;;;1.90;;
39044;SDS011;52192;52.002;5.956;2022-11-04T01:07:24;2.65;;;1.52;;
39044;SDS011;52192;52.002;5.956;2022-11-04T01:09:50;2.08;;;1.30;;
39044;SDS011;52192;52.002;5.956;2022-11-04T01:12:15;1.73;;;1.50;;
39044;SDS011;52192;52.002;5.956;2022-11-04T01:14:41;1.50;;;1.40;;
39044;SDS011;52192;52.002;5.956;2022-11-04T01:17:07;3.50;;;1.00;;
39044;SDS011;52192;52.002;5.956;2022-11-04T01:19:33;1.23;;;0.80;;
39044;SDS011;52192;52.002;5.956;2022-11-04T01:21:58;1.25;;;1.00;;
39044;SDS011;52192;52.002;5.956;2022-11-04T01:24:24;0.40;;;0.40;;
39044;SDS011;52192;52.002;5.956;2022-11-04T01:26:50;0.93;;;0.77;;
39044;SDS011;52192;52.002;5.956;2022-11-04T01:29:15;0.73;;;0.50;;
39044;SDS011;52192;52.002;5.956;2022-11-04T01:31:41;0.40;;;0.40;;
39044;SDS011;52192;52.002;5.956;2022-11-04T01:34:07;0.82;;;0.60;;
39044;SDS011;52192;52.002;5.956;2022-11-04T01:36:33;0.50;;;0.50;;
39044;SDS011;52192;52.002;5.956;2022-11-04T01:38:58;0.55;;;0.55;;
39044;SDS011;52192;52.002;5.956;2022-11-04T01:41:28;1.02;;;0.45;;
39044;SDS011;52192;52.002;5.956;2022-11-04T01:43:59;1.57;;;0.60;;
39044;SDS011;52192;52.002;5.956;2022-11-04T01:49:10;0.80;;;0.80;;
39044;SDS011;52192;52.002;5.956;2022-11-04T01:51:56;1.25;;;0.50;;
39044;SDS011;52192;52.002;5.956;2022-11-04T01:54:29;0.70;;;0.47;;
39044;SDS011;52192;52.002;5.956;2022-11-04T01:56:55;0.45;;;0.45;;
39044;SDS011;52192;52.002;5.956;2022-11-04T01:59:25;0.75;;;0.73;;
39044;SDS011;52192;52.002;5.956;2022-11-04T02:01:55;1.25;;;0.70;;
39044;SDS011;52192;52.002;5.956;2022-11-04T02:04:21;0.88;;;0.43;;
39044;SDS011;52192;52.002;5.956;2022-11-04T02:06:51;0.85;;;0.85;;
39044;SDS011;52192;52.002;5.956;2022-11-04T02:09:19;1.30;;;0.80;;
39044;SDS011;52192;52.002;5.956;2022-11-04T02:11:46;2.80;;;1.40;;
39044;SDS011;52192;52.002;5.956;2022-11-04T02:14:31;1.15;;;0.93;;
39044;SDS011;52192;52.002;5.956;2022-11-04T02:17:24;3.50;;;1.75;;
39044;SDS011;52192;52.002;5.956;2022-11-04T02:39:22;3.58;;;2.70;;
39044;SDS011;52192;52.002;5.956;2022-11-04T02:42:20;5.43;;;3.67;;
39044;SDS011;52192;52.002;5.956;2022-11-04T02:48:04;6.32;;;4.35;;
39044;SDS011;52192;52.002;5.956;2022-11-04T02:50:41;6.40;;;4.75;;
39044;SDS011;52192;52.002;5.956;2022-11-04T02:53:35;8.63;;;5.05;;
39044;SDS011;52192;52.002;5.956;2022-11-04T02:56:05;6.50;;;4.53;;
39044;SDS011;52192;52.002;5.956;2022-11-04T02:58:37;5.65;;;3.97;;
39044;SDS011;52192;52.002;5.956;2022-11-04T03:01:10;7.47;;;4.60;;
39044;SDS011;52192;52.002;5.956;2022-11-04T03:03:42;6.50;;;4.30;;
39044;SDS011;52192;52.002;5.956;2022-11-04T03:06:13;4.67;;;3.50;;
39044;SDS011;52192;52.002;5.956;2022-11-04T03:08:42;8.30;;;5.43;;
39044;SDS011;52192;52.002;5.956;2022-11-04T03:11:19;6.88;;;5.03;;
39044;SDS011;52192;52.002;5.956;2022-11-04T03:13:58;7.72;;;4.97;;
39044;SDS011;52192;52.002;5.956;2022-11-04T03:22:04;13.15;;;5.97;;
39044;SDS011;52192;52.002;5.956;2022-11-04T03:24:32;8.93;;;5.22;;
39044;SDS011;52192;52.002;5.956;2022-11-04T03:26:59;7.55;;;5.25;;
39044;SDS011;52192;52.002;5.956;2022-11-04T03:30:01;7.47;;;4.88;;
39044;SDS011;52192;52.002;5.956;2022-11-04T03:35:04;7.40;;;4.75;;
39044;SDS011;52192;52.002;5.956;2022-11-04T03:37:30;7.25;;;4.85;;
39044;SDS011;52192;52.002;5.956;2022-11-04T03:39:56;13.95;;;5.88;;
39044;SDS011;52192;52.002;5.956;2022-11-04T03:42:22;7.97;;;6.15;;
39044;SDS011;52192;52.002;5.956;2022-11-04T03:44:49;8.00;;;5.95;;
39044;SDS011;52192;52.002;5.956;2022-11-04T03:47:17;7.63;;;4.72;;
39044;SDS011;52192;52.002;5.956;2022-11-04T03:49:49;10.30;;;4.88;;
39044;SDS011;52192;52.002;5.956;2022-11-04T03:52:18;8.55;;;4.57;;
39044;SDS011;52192;52.002;5.956;2022-11-04T03:54:45;6.22;;;4.80;;
39044;SDS011;52192;52.002;5.956;2022-11-04T04:03:00;4.78;;;3.42;;
39044;SDS011;52192;52.002;5.956;2022-11-04T04:05:36;6.43;;;4.32;;
39044;SDS011;52192;52.002;5.956;2022-11-04T04:08:12;9.60;;;4.70;;
39044;SDS011;52192;52.002;5.956;2022-11-04T04:10:49;5.57;;;4.03;;
39044;SDS011;52192;52.002;5.956;2022-11-04T04:13:36;6.88;;;4.00;;
39044;SDS011;52192;52.002;5.956;2022-11-04T04:21:45;6.70;;;4.10;;
39044;SDS011;52192;52.002;5.956;2022-11-04T04:24:17;11.77;;;4.45;;
39044;SDS011;52192;52.002;5.956;2022-11-04T04:27:04;6.32;;;3.95;;
39044;SDS011;52192;52.002;5.956;2022-11-04T04:29:49;8.63;;;4.07;;
39044;SDS011;52192;52.002;5.956;2022-11-04T04:32:16;7.32;;;4.43;;
39044;SDS011;52192;52.002;5.956;2022-11-04T04:34:44;6.22;;;3.78;;
39044;SDS011;52192;52.002;5.956;2022-11-04T04:37:28;5.40;;;3.17;;
39044;SDS011;52192;52.002;5.956;2022-11-04T04:39:57;5.43;;;3.28;;
39044;SDS011;52192;52.002;5.956;2022-11-04T04:42:42;5.93;;;3.33;;
39044;SDS011;52192;52.002;5.956;2022-11-04T04:45:36;3.47;;;2.50;;
39044;SDS011;52192;52.002;5.956;2022-11-04T04:48:04;3.25;;;2.30;;
39044;SDS011;52192;52.002;5.956;2022-11-04T04:50:32;3.45;;;2.30;;
39044;SDS011;52192;52.002;5.956;2022-11-04T04:53:01;3.38;;;1.90;;
39044;SDS011;52192;52.002;5.956;2022-11-04T04:55:30;2.42;;;2.00;;
39044;SDS011;52192;52.002;5.956;2022-11-04T04:57:56;4.00;;;2.25;;
39044;SDS011;52192;52.002;5.956;2022-11-04T05:00:22;4.35;;;2.30;;
39044;SDS011;52192;52.002;5.956;2022-11-04T05:02:48;2.20;;;1.98;;
39044;SDS011;52192;52.002;5.956;2022-11-04T05:05:14;2.92;;;2.13;;
39044;SDS011;52192;52.002;5.956;2022-11-04T05:07:40;4.47;;;2.10;;
39044;SDS011;52192;52.002;5.956;2022-11-04T05:10:07;3.83;;;2.20;;
39044;SDS011;52192;52.002;5.956;2022-11-04T05:12:35;9.73;;;1.75;;
39044;SDS011;52192;52.002;5.956;2022-11-04T05:15:20;11.18;;;2.17;;
39044;SDS011;52192;52.002;5.956;2022-11-04T05:17:46;3.67;;;1.77;;
39044;SDS011;52192;52.002;5.956;2022-11-04T05:20:12;2.88;;;1.92;;
39044;SDS011;52192;52.002;5.956;2022-11-04T05:22:38;4.35;;;2.25;;
39044;SDS011;52192;52.002;5.956;2022-11-04T05:25:04;2.53;;;1.63;;
39044;SDS011;52192;52.002;5.956;2022-11-04T05:27:30;4.00;;;2.17;;
39044;SDS011;52192;52.002;5.956;2022-11-04T05:29:56;2.78;;;1.67;;
39044;SDS011;52192;52.002;5.956;2022-11-04T05:32:21;6.03;;;2.30;;
39044;SDS011;52192;52.002;5.956;2022-11-04T05:34:47;2.20;;;1.65;;
39044;SDS011;52192;52.002;5.956;2022-11-04T05:37:12;4.65;;;1.88;;
39044;SDS011;52192;52.002;5.956;2022-11-04T05:39:38;2.90;;;1.95;;
39044;SDS011;52192;52.002;5.956;2022-11-04T05:42:04;5.53;;;1.85;;
39044;SDS011;52192;52.002;5.956;2022-11-04T05:44:29;1.88;;;1.67;;
39044;SDS011;52192;52.002;5.956;2022-11-04T05:46:55;3.28;;;1.75;;
39044;SDS011;52192;52.002;5.956;2022-11-04T05:49:21;3.53;;;2.15;;
39044;SDS011;52192;52.002;5.956;2022-11-04T05:51:46;4.32;;;1.88;;
39044;SDS011;52192;52.002;5.956;2022-11-04T05:54:12;2.58;;;1.88;;
39044;SDS011;52192;52.002;5.956;2022-11-04T05:56:38;1.52;;;1.17;;
39044;SDS011;52192;52.002;5.956;2022-11-04T05:59:03;1.98;;;1.42;;
39044;SDS011;52192;52.002;5.956;2022-11-04T06:03:55;3.13;;;1.50;;
39044;SDS011;52192;52.002;5.956;2022-11-04T06:06:22;1.60;;;1.40;;
39044;SDS011;52192;52.002;5.956;2022-11-04T06:08:48;1.75;;;1.35;;
39044;SDS011;52192;52.002;5.956;2022-11-04T06:11:15;2.03;;;1.27;;
39044;SDS011;52192;52.002;5.956;2022-11-04T06:13:41;2.15;;;1.48;;
39044;SDS011;52192;52.002;5.956;2022-11-04T06:16:07;3.42;;;1.40;;
39044;SDS011;52192;52.002;5.956;2022-11-04T06:18:32;2.80;;;2.20;;
39044;SDS011;52192;52.002;5.956;2022-11-04T06:21:08;3.17;;;1.30;;
39044;SDS011;52192;52.002;5.956;2022-11-04T06:23:37;3.92;;;1.98;;
39044;SDS011;52192;52.002;5.956;2022-11-04T06:26:04;1.65;;;1.20;;
39044;SDS011;52192;52.002;5.956;2022-11-04T06:28:30;3.30;;;1.90;;
39044;SDS011;52192;52.002;5.956;2022-11-04T06:30:56;4.72;;;1.52;;
39044;SDS011;52192;52.002;5.956;2022-11-04T06:33:23;3.33;;;1.42;;
39044;SDS011;52192;52.002;5.956;2022-11-04T06:35:49;1.83;;;1.55;;
39044;SDS011;52192;52.002;5.956;2022-11-04T06:38:14;2.63;;;1.52;;
39044;SDS011;52192;52.002;5.956;2022-11-04T06:40:40;1.65;;;1.02;;
39044;SDS011;52192;52.002;5.956;2022-11-04T06:43:06;1.67;;;1.10;;
39044;SDS011;52192;52.002;5.956;2022-11-04T06:45:31;5.55;;;1.42;;
39044;SDS011;52192;52.002;5.956;2022-11-04T06:47:57;1.83;;;1.33;;
39044;SDS011;52192;52.002;5.956;2022-11-04T06:50:23;2.35;;;1.00;;
39044;SDS011;52192;52.002;5.956;2022-11-04T06:52:48;3.10;;;1.85;;
39044;SDS011;52192;52.002;5.956;2022-11-04T06:55:14;1.73;;;1.25;;
39044;SDS011;52192;52.002;5.956;2022-11-04T06:57:40;2.80;;;0.98;;
39044;SDS011;52192;52.002;5.956;2022-11-04T07:00:05;2.00;;;1.27;;
39044;SDS011;52192;52.002;5.956;2022-11-04T07:02:31;1.92;;;1.27;;
39044;SDS011;52192;52.002;5.956;2022-11-04T07:04:57;1.45;;;1.27;;
39044;SDS011;52192;52.002;5.956;2022-11-04T07:07:23;2.13;;;1.30;;
39044;SDS011;52192;52.002;5.956;2022-11-04T07:09:48;2.22;;;1.63;;
39044;SDS011;52192;52.002;5.956;2022-11-04T07:12:14;2.88;;;1.73;;
39044;SDS011;52192;52.002;5.956;2022-11-04T07:14:40;1.20;;;0.80;;
39044;SDS011;52192;52.002;5.956;2022-11-04T07:17:06;1.35;;;0.80;;
39044;SDS011;52192;52.002;5.956;2022-11-04T07:19:32;1.60;;;1.38;;
39044;SDS011;52192;52.002;5.956;2022-11-04T07:21:58;1.40;;;1.30;;
39044;SDS011;52192;52.002;5.956;2022-11-04T07:24:23;1.65;;;1.40;;
39044;SDS011;52192;52.002;5.956;2022-11-04T07:26:49;1.83;;;1.30;;
39044;SDS011;52192;52.002;5.956;2022-11-04T07:29:15;2.75;;;1.45;;
39044;SDS011;52192;52.002;5.956;2022-11-04T07:31:42;1.48;;;1.38;;
39044;SDS011;52192;52.002;5.956;2022-11-04T07:34:07;2.50;;;1.15;;
39044;SDS011;52192;52.002;5.956;2022-11-04T07:36:33;1.10;;;1.00;;
39044;SDS011;52192;52.002;5.956;2022-11-04T07:38:58;3.63;;;1.17;;
39044;SDS011;52192;52.002;5.956;2022-11-04T07:41:25;1.65;;;1.02;;
39044;SDS011;52192;52.002;5.956;2022-11-04T07:43:51;1.95;;;1.25;;
39044;SDS011;52192;52.002;5.956;2022-11-04T07:46:19;1.95;;;1.38;;
39044;SDS011;52192;52.002;5.956;2022-11-04T07:48:45;1.63;;;1.38;;
39044;SDS011;52192;52.002;5.956;2022-11-04T07:51:13;0.77;;;0.77;;
39044;SDS011;52192;52.002;5.956;2022-11-04T07:53:40;4.55;;;1.63;;
39044;SDS011;52192;52.002;5.956;2022-11-04T07:56:07;1.73;;;0.73;;
39044;SDS011;52192;52.002;5.956;2022-11-04T07:58:35;1.20;;;1.08;;
39044;SDS011;52192;52.002;5.956;2022-11-04T08:01:06;1.25;;;1.15;;
39044;SDS011;52192;52.002;5.956;2022-11-04T08:03:35;3.13;;;1.65;;
39044;SDS011;52192;52.002;5.956;2022-11-04T08:06:01;1.65;;;1.17;;
39044;SDS011;52192;52.002;5.956;2022-11-04T08:08:28;2.10;;;1.02;;
39044;SDS011;52192;52.002;5.956;2022-11-04T08:10:55;1.90;;;1.40;;
39044;SDS011;52192;52.002;5.956;2022-11-04T08:13:29;2.17;;;1.25;;
39044;SDS011;52192;52.002;5.956;2022-11-04T08:15:56;2.08;;;1.00;;
39044;SDS011;52192;52.002;5.956;2022-11-04T08:18:25;3.47;;;1.67;;
39044;SDS011;52192;52.002;5.956;2022-11-04T08:20:51;1.95;;;0.95;;
39044;SDS011;52192;52.002;5.956;2022-11-04T08:23:17;1.42;;;1.30;;
39044;SDS011;52192;52.002;5.956;2022-11-04T08:25:44;4.53;;;1.63;;
39044;SDS011;52192;52.002;5.956;2022-11-04T08:28:10;2.22;;;1.58;;
39044;SDS011;52192;52.002;5.956;2022-11-04T08:30:37;2.75;;;1.10;;
39044;SDS011;52192;52.002;5.956;2022-11-04T08:33:03;2.25;;;0.85;;
39044;SDS011;52192;52.002;5.956;2022-11-04T08:35:29;2.70;;;1.33;;
39044;SDS011;52192;52.002;5.956;2022-11-04T08:37:55;1.17;;;1.00;;
39044;SDS011;52192;52.002;5.956;2022-11-04T08:40:21;2.53;;;1.30;;
39044;SDS011;52192;52.002;5.956;2022-11-04T08:42:48;2.53;;;1.10;;
39044;SDS011;52192;52.002;5.956;2022-11-04T08:45:14;2.72;;;1.50;;
39044;SDS011;52192;52.002;5.956;2022-11-04T08:47:39;1.38;;;0.95;;
39044;SDS011;52192;52.002;5.956;2022-11-04T08:50:05;2.72;;;0.88;;
39044;SDS011;52192;52.002;5.956;2022-11-04T08:52:31;2.28;;;0.98;;
39044;SDS011;52192;52.002;5.956;2022-11-04T08:54:58;3.10;;;1.55;;
39044;SDS011;52192;52.002;5.956;2022-11-04T08:57:23;2.30;;;1.48;;
39044;SDS011;52192;52.002;5.956;2022-11-04T08:59:50;2.15;;;1.25;;
39044;SDS011;52192;52.002;5.956;2022-11-04T09:02:15;4.30;;;1.85;;
39044;SDS011;52192;52.002;5.956;2022-11-04T09:04:41;2.60;;;1.60;;
39044;SDS011;52192;52.002;5.956;2022-11-04T09:07:07;3.35;;;1.83;;
39044;SDS011;52192;52.002;5.956;2022-11-04T09:09:32;2.70;;;1.45;;
39044;SDS011;52192;52.002;5.956;2022-11-04T09:11:58;1.88;;;1.35;;
39044;SDS011;52192;52.002;5.956;2022-11-04T09:14:24;1.13;;;0.95;;
39044;SDS011;52192;52.002;5.956;2022-11-04T09:16:49;4.88;;;1.40;;
39044;SDS011;52192;52.002;5.956;2022-11-04T09:19:15;2.33;;;1.02;;
39044;SDS011;52192;52.002;5.956;2022-11-04T09:21:41;2.00;;;1.02;;
39044;SDS011;52192;52.002;5.956;2022-11-04T09:24:06;1.67;;;1.27;;
39044;SDS011;52192;52.002;5.956;2022-11-04T09:26:34;3.10;;;1.65;;
39044;SDS011;52192;52.002;5.956;2022-11-04T09:28:59;3.67;;;1.38;;
39044;SDS011;52192;52.002;5.956;2022-11-04T09:31:26;1.95;;;1.45;;
39044;SDS011;52192;52.002;5.956;2022-11-04T09:33:54;2.50;;;1.23;;
39044;SDS011;52192;52.002;5.956;2022-11-04T09:36:19;2.75;;;1.33;;
39044;SDS011;52192;52.002;5.956;2022-11-04T09:38:45;4.80;;;1.65;;
39044;SDS011;52192;52.002;5.956;2022-11-04T09:46:41;5.82;;;2.17;;
39044;SDS011;52192;52.002;5.956;2022-11-04T09:49:08;3.50;;;1.92;;
39044;SDS011;52192;52.002;5.956;2022-11-04T09:51:36;4.60;;;2.00;;
39044;SDS011;52192;52.002;5.956;2022-11-04T09:54:15;6.38;;;2.22;;
39044;SDS011;52192;52.002;5.956;2022-11-04T09:56:47;2.30;;;1.67;;
39044;SDS011;52192;52.002;5.956;2022-11-04T09:59:18;2.13;;;1.88;;
39044;SDS011;52192;52.002;5.956;2022-11-04T10:04:23;3.28;;;1.98;;
39044;SDS011;52192;52.002;5.956;2022-11-04T10:18:44;5.55;;;2.80;;
39044;SDS011;52192;52.002;5.956;2022-11-04T10:21:35;3.25;;;1.80;;
39044;SDS011;52192;52.002;5.956;2022-11-04T10:24:23;3.03;;;1.70;;
39044;SDS011;52192;52.002;5.956;2022-11-04T10:26:59;2.85;;;2.10;;
39044;SDS011;52192;52.002;5.956;2022-11-04T10:29:35;4.33;;;2.50;;
39044;SDS011;52192;52.002;5.956;2022-11-04T10:32:04;4.13;;;2.60;;
39044;SDS011;52192;52.002;5.956;2022-11-04T10:34:40;4.38;;;1.90;;
39044;SDS011;52192;52.002;5.956;2022-11-04T10:37:29;4.38;;;2.40;;
39044;SDS011;52192;52.002;5.956;2022-11-04T10:40:16;4.38;;;2.85;;
39044;SDS011;52192;52.002;5.956;2022-11-04T10:42:53;4.97;;;2.90;;
39044;SDS011;52192;52.002;5.956;2022-11-04T10:45:22;4.40;;;2.95;;
39044;SDS011;52192;52.002;5.956;2022-11-04T10:47:56;4.18;;;2.85;;
39044;SDS011;52192;52.002;5.956;2022-11-04T10:50:29;2.00;;;1.70;;
39044;SDS011;52192;52.002;5.956;2022-11-04T10:53:10;4.38;;;2.78;;
39044;SDS011;52192;52.002;5.956;2022-11-04T11:03:53;4.10;;;2.72;;
39044;SDS011;52192;52.002;5.956;2022-11-04T11:08:56;5.47;;;3.58;;
39044;SDS011;52192;52.002;5.956;2022-11-04T11:11:34;17.85;;;3.60;;
39044;SDS011;52192;52.002;5.956;2022-11-04T11:14:03;2.47;;;1.98;;
39044;SDS011;52192;52.002;5.956;2022-11-04T11:16:28;5.05;;;2.88;;
39044;SDS011;52192;52.002;5.956;2022-11-04T11:19:12;2.22;;;1.92;;
39044;SDS011;52192;52.002;5.956;2022-11-04T11:21:42;3.47;;;2.03;;
39044;SDS011;52192;52.002;5.956;2022-11-04T11:24:34;6.77;;;2.30;;
39044;SDS011;52192;52.002;5.956;2022-11-04T11:27:00;3.42;;;2.47;;
39044;SDS011;52192;52.002;5.956;2022-11-04T11:29:35;3.85;;;2.83;;
39044;SDS011;52192;52.002;5.956;2022-11-04T11:32:25;4.10;;;3.17;;
39044;SDS011;52192;52.002;5.956;2022-11-04T11:34:51;5.90;;;2.53;;
39044;SDS011;52192;52.002;5.956;2022-11-04T11:37:21;2.92;;;2.58;;
39044;SDS011;52192;52.002;5.956;2022-11-04T11:39:48;4.03;;;3.08;;
39044;SDS011;52192;52.002;5.956;2022-11-04T11:42:14;3.08;;;2.10;;
39044;SDS011;52192;52.002;5.956;2022-11-04T11:50:02;2.92;;;2.40;;
39044;SDS011;52192;52.002;5.956;2022-11-04T11:55:16;5.03;;;3.05;;
39044;SDS011;52192;52.002;5.956;2022-11-04T11:58:57;5.00;;;2.72;;
39044;SDS011;52192;52.002;5.956;2022-11-04T12:06:23;4.97;;;2.92;;
39044;SDS011;52192;52.002;5.956;2022-11-04T12:14:31;3.80;;;2.33;;
39044;SDS011;52192;52.002;5.956;2022-11-04T12:17:03;2.83;;;2.28;;
39044;SDS011;52192;52.002;5.956;2022-11-04T12:22:33;4.13;;;2.42;;
39044;SDS011;52192;52.002;5.956;2022-11-04T12:30:32;4.85;;;2.63;;
39044;SDS011;52192;52.002;5.956;2022-11-04T12:35:50;9.20;;;2.78;;
39044;SDS011;52192;52.002;5.956;2022-11-04T12:38:34;4.70;;;2.83;;
39044;SDS011;52192;52.002;5.956;2022-11-04T12:41:14;3.53;;;2.45;;
39044;SDS011;52192;52.002;5.956;2022-11-04T12:46:56;5.78;;;4.00;;
39044;SDS011;52192;52.002;5.956;2022-11-04T12:49:55;3.63;;;2.38;;
39044;SDS011;52192;52.002;5.956;2022-11-04T13:01:04;3.50;;;2.38;;
39044;SDS011;52192;52.002;5.956;2022-11-04T13:06:20;5.10;;;2.88;;
39044;SDS011;52192;52.002;5.956;2022-11-04T13:11:40;10.68;;;3.40;;
39044;SDS011;52192;52.002;5.956;2022-11-04T13:14:22;4.07;;;2.67;;
39044;SDS011;52192;52.002;5.956;2022-11-04T13:16:56;3.90;;;2.67;;
39044;SDS011;52192;52.002;5.956;2022-11-04T13:21:55;3.63;;;2.47;;
39044;SDS011;52192;52.002;5.956;2022-11-04T13:24:26;2.65;;;2.40;;
39044;SDS011;52192;52.002;5.956;2022-11-04T13:26:59;4.25;;;2.80;;
39044;SDS011;52192;52.002;5.956;2022-11-04T13:40:24;4.10;;;2.70;;
39044;SDS011;52192;52.002;5.956;2022-11-04T13:45:48;3.95;;;2.08;;
39044;SDS011;52192;52.002;5.956;2022-11-04T13:48:21;7.07;;;2.83;;
39044;SDS011;52192;52.002;5.956;2022-11-04T13:50:54;4.45;;;2.53;;
39044;SDS011;52192;52.002;5.956;2022-11-04T14:01:32;4.18;;;2.60;;
39044;SDS011;52192;52.002;5.956;2022-11-04T14:14:45;5.43;;;2.05;;
39044;SDS011;52192;52.002;5.956;2022-11-04T14:22:49;5.25;;;2.88;;
39044;SDS011;52192;52.002;5.956;2022-11-04T14:25:30;4.57;;;2.47;;
39044;SDS011;52192;52.002;5.956;2022-11-04T14:30:51;4.85;;;3.90;;
39044;SDS011;52192;52.002;5.956;2022-11-04T14:33:31;3.70;;;2.92;;
39044;SDS011;52192;52.002;5.956;2022-11-04T14:36:13;4.05;;;2.17;;
39044;SDS011;52192;52.002;5.956;2022-11-04T14:44:19;5.90;;;2.85;;
39044;SDS011;52192;52.002;5.956;2022-11-04T14:52:27;2.78;;;2.20;;
39044;SDS011;52192;52.002;5.956;2022-11-04T14:57:43;2.80;;;2.53;;
39044;SDS011;52192;52.002;5.956;2022-11-04T15:05:39;0.60;;;0.47;;
39044;SDS011;52192;52.002;5.956;2022-11-04T15:08:41;0.28;;;0.28;;
39044;SDS011;52192;52.002;5.956;2022-11-04T15:13:45;0.50;;;0.50;;
39044;SDS011;52192;52.002;5.956;2022-11-04T15:16:16;0.30;;;0.30;;
39044;SDS011;52192;52.002;5.956;2022-11-04T15:18:48;0.50;;;0.50;;
39044;SDS011;52192;52.002;5.956;2022-11-04T15:21:15;0.17;;;0.17;;
39044;SDS011;52192;52.002;5.956;2022-11-04T15:23:45;0.28;;;0.28;;
39044;SDS011;52192;52.002;5.956;2022-11-04T15:28:51;0.28;;;0.28;;
39044;SDS011;52192;52.002;5.956;2022-11-04T15:31:19;0.30;;;0.30;;
39044;SDS011;52192;52.002;5.956;2022-11-04T15:33:49;0.40;;;0.40;;
39044;SDS011;52192;52.002;5.956;2022-11-04T15:36:24;1.55;;;0.30;;
39044;SDS011;52192;52.002;5.956;2022-11-04T15:38:56;1.00;;;0.47;;
39044;SDS011;52192;52.002;5.956;2022-11-04T15:41:26;1.20;;;0.35;;
39044;SDS011;52192;52.002;5.956;2022-11-04T15:44:13;0.20;;;0.20;;
39044;SDS011;52192;52.002;5.956;2022-11-04T15:46:55;0.30;;;0.30;;
39044;SDS011;52192;52.002;5.956;2022-11-04T15:49:32;1.58;;;0.60;;
39044;SDS011;52192;52.002;5.956;2022-11-04T15:52:07;3.83;;;0.60;;
39044;SDS011;52192;52.002;5.956;2022-11-04T15:54:39;1.10;;;0.50;;
39044;SDS011;52192;52.002;5.956;2022-11-04T15:57:11;0.30;;;0.30;;
39044;SDS011;52192;52.002;5.956;2022-11-04T15:59:37;0.40;;;0.35;;
39044;SDS011;52192;52.002;5.956;2022-11-04T16:02:05;0.82;;;0.38;;
39044;SDS011;52192;52.002;5.956;2022-11-04T16:04:44;0.77;;;0.68;;
39044;SDS011;52192;52.002;5.956;2022-11-04T16:07:28;2.17;;;0.70;;
39044;SDS011;52192;52.002;5.956;2022-11-04T16:09:58;0.85;;;0.40;;
39044;SDS011;52192;52.002;5.956;2022-11-04T16:12:24;0.95;;;0.63;;
39044;SDS011;52192;52.002;5.956;2022-11-04T16:14:59;0.82;;;0.47;;
39044;SDS011;52192;52.002;5.956;2022-11-04T16:17:25;0.93;;;0.52;;
39044;SDS011;52192;52.002;5.956;2022-11-04T16:19:57;0.38;;;0.38;;
39044;SDS011;52192;52.002;5.956;2022-11-04T16:22:27;0.63;;;0.63;;
39044;SDS011;52192;52.002;5.956;2022-11-04T16:25:05;0.75;;;0.45;;
39044;SDS011;52192;52.002;5.956;2022-11-04T16:27:36;0.88;;;0.50;;
39044;SDS011;52192;52.002;5.956;2022-11-04T16:30:07;0.52;;;0.52;;
39044;SDS011;52192;52.002;5.956;2022-11-04T16:32:47;0.75;;;0.60;;
39044;SDS011;52192;52.002;5.956;2022-11-04T16:35:19;1.40;;;0.60;;
39044;SDS011;52192;52.002;5.956;2022-11-04T16:37:49;0.60;;;0.60;;
39044;SDS011;52192;52.002;5.956;2022-11-04T16:40:20;1.35;;;0.57;;
39044;SDS011;52192;52.002;5.956;2022-11-04T16:42:47;0.88;;;0.65;;
39044;SDS011;52192;52.002;5.956;2022-11-04T16:47:49;2.10;;;0.85;;
39044;SDS011;52192;52.002;5.956;2022-11-04T16:50:15;0.30;;;0.30;;
39044;SDS011;52192;52.002;5.956;2022-11-04T16:52:42;3.47;;;0.70;;
39044;SDS011;52192;52.002;5.956;2022-11-04T16:55:08;0.25;;;0.25;;
39044;SDS011;52192;52.002;5.956;2022-11-04T16:57:35;0.52;;;0.52;;
39044;SDS011;52192;52.002;5.956;2022-11-04T17:00:02;0.55;;;0.40;;
39044;SDS011;52192;52.002;5.956;2022-11-04T17:02:31;0.20;;;0.20;;
39044;SDS011;52192;52.002;5.956;2022-11-04T17:05:05;0.82;;;0.35;;
39044;SDS011;52192;52.002;5.956;2022-11-04T17:07:31;0.32;;;0.30;;
39044;SDS011;52192;52.002;5.956;2022-11-04T17:09:57;0.80;;;0.80;;
39044;SDS011;52192;52.002;5.956;2022-11-04T17:12:23;0.80;;;0.50;;
39044;SDS011;52192;52.002;5.956;2022-11-04T17:14:49;2.40;;;0.70;;
39044;SDS011;52192;52.002;5.956;2022-11-04T17:17:14;3.67;;;0.85;;
39044;SDS011;52192;52.002;5.956;2022-11-04T17:19:41;1.70;;;0.70;;
39044;SDS011;52192;52.002;5.956;2022-11-04T17:22:06;1.00;;;0.57;;
39044;SDS011;52192;52.002;5.956;2022-11-04T17:24:33;2.05;;;0.70;;
39044;SDS011;52192;52.002;5.956;2022-11-04T17:26:59;1.38;;;0.75;;
39044;SDS011;52192;52.002;5.956;2022-11-04T17:29:25;0.80;;;0.75;;
39044;SDS011;52192;52.002;5.956;2022-11-04T17:31:50;0.65;;;0.65;;
39044;SDS011;52192;52.002;5.956;2022-11-04T17:34:19;2.15;;;0.45;;
39044;SDS011;52192;52.002;5.956;2022-11-04T17:36:49;1.13;;;0.73;;
39044;SDS011;52192;52.002;5.956;2022-11-04T17:39:16;0.98;;;0.70;;
39044;SDS011;52192;52.002;5.956;2022-11-04T17:41:41;6.22;;;0.80;;
39044;SDS011;52192;52.002;5.956;2022-11-04T17:44:25;3.90;;;0.75;;
39044;SDS011;52192;52.002;5.956;2022-11-04T17:46:51;0.60;;;0.60;;
39044;SDS011;52192;52.002;5.956;2022-11-04T17:49:18;1.08;;;0.70;;
39044;SDS011;52192;52.002;5.956;2022-11-04T17:51:50;2.22;;;0.93;;
39044;SDS011;52192;52.002;5.956;2022-11-04T17:54:18;0.63;;;0.63;;
39044;SDS011;52192;52.002;5.956;2022-11-04T17:56:45;1.30;;;0.70;;
39044;SDS011;52192;52.002;5.956;2022-11-04T17:59:12;1.42;;;0.70;;
39044;SDS011;52192;52.002;5.956;2022-11-04T18:01:38;0.80;;;0.63;;
39044;SDS011;52192;52.002;5.956;2022-11-04T18:04:05;0.80;;;0.57;;
39044;SDS011;52192;52.002;5.956;2022-11-04T18:06:32;0.82;;;0.82;;
39044;SDS011;52192;52.002;5.956;2022-11-04T18:09:00;0.75;;;0.40;;
39044;SDS011;52192;52.002;5.956;2022-11-04T18:11:27;1.95;;;0.40;;
39044;SDS011;52192;52.002;5.956;2022-11-04T18:14:13;8.55;;;1.02;;
39044;SDS011;52192;52.002;5.956;2022-11-04T18:16:41;0.95;;;0.63;;
39044;SDS011;52192;52.002;5.956;2022-11-04T18:19:07;1.38;;;0.73;;
39044;SDS011;52192;52.002;5.956;2022-11-04T18:21:34;0.95;;;0.43;;
39044;SDS011;52192;52.002;5.956;2022-11-04T18:24:00;2.40;;;0.90;;